createdAt,value
2022-09-15T00:02:11.609Z,97451.60
2022-09-15T00:04:42.434Z,97451.80
2022-09-15T00:07:14.987Z,97452.95
2022-09-15T00:09:45.618Z,97451.61
2022-09-15T00:12:23.596Z,97440.80
2022-09-15T00:15:03.866Z,97436.77
2022-09-15T00:17:41.906Z,97441.15
2022-09-15T00:20:15.722Z,97443.60
2022-09-15T00:22:46.948Z,97444.06
2022-09-15T00:25:17.781Z,97441.87
2022-09-15T00:28:01.400Z,97434.67
2022-09-15T00:31:03.268Z,97432.13
2022-09-15T00:33:45.505Z,97430.27
2022-09-15T00:36:42.609Z,97430.29
2022-09-15T00:39:28.005Z,97428.11
2022-09-15T00:41:55.777Z,97423.05
2022-09-15T00:44:56.132Z,97421.15
2022-09-15T00:47:53.071Z,97416.56
2022-09-15T00:50:54.328Z,97414.70
2022-09-15T00:53:32.119Z,97418.40
2022-09-15T00:56:32.964Z,97417.52
2022-09-15T00:59:17.413Z,97415.98
2022-09-15T01:02:29.999Z,97414.55
2022-09-15T01:05:13.126Z,97414.20
2022-09-15T01:07:51.579Z,97412.73
2022-09-15T01:10:50.762Z,97410.17
2022-09-15T01:14:11.918Z,97409.20
2022-09-15T01:17:13.943Z,97411.08
2022-09-15T01:20:25.116Z,97405.49
2022-09-15T01:23:27.842Z,97396.79
2022-09-15T01:26:34.085Z,97396.30
2022-09-15T01:29:46.400Z,97388.74
2022-09-15T01:33:16.011Z,97396.79
2022-09-15T01:36:10.668Z,97398.99
2022-09-15T01:39:36.281Z,97400.87
2022-09-15T01:42:13.175Z,97393.45
2022-09-15T01:44:49.912Z,97381.55
2022-09-15T01:47:27.740Z,97377.35
2022-09-15T01:50:22.901Z,97369.69
2022-09-15T01:52:58.383Z,97360.16
2022-09-15T01:55:51.900Z,97362.96
2022-09-15T01:58:29.028Z,97370.35
2022-09-15T02:01:57.604Z,97371.06
2022-09-15T02:04:30.380Z,97354.16
2022-09-15T02:07:31.762Z,97350.11
2022-09-15T02:10:13.751Z,97337.40
2022-09-15T02:12:50.867Z,97343.39
2022-09-15T02:15:30.254Z,97337.66
2022-09-15T02:18:17.690Z,97338.89
2022-09-15T02:21:12.889Z,97342.30
2022-09-15T02:24:29.080Z,97338.20
2022-09-15T02:27:50.320Z,97350.36
2022-09-15T02:30:22.441Z,97349.53
2022-09-15T02:33:07.537Z,97338.67
2022-09-15T02:35:50.095Z,97337.80
2022-09-15T02:38:22.950Z,97336.27
2022-09-15T02:41:07.661Z,97332.73
2022-09-15T02:43:38.697Z,97326.36
2022-09-15T02:46:06.310Z,97324.85
2022-09-15T02:48:52.266Z,97323.45
2022-09-15T02:51:19.756Z,97324.95
2022-09-15T02:54:00.320Z,97326.37
2022-09-15T02:56:31.308Z,97326.21
2022-09-15T02:59:02.973Z,97320.60
2022-09-15T03:02:00.482Z,97307.20
2022-09-15T03:04:40.177Z,97298.44
2022-09-15T03:07:16.105Z,97294.98
2022-09-15T03:09:45.118Z,97290.41
2022-09-15T03:12:27.880Z,97286.08
2022-09-15T03:14:57.385Z,97280.80
2022-09-15T03:17:36.403Z,97277.41
2022-09-15T03:20:30.370Z,97274.90
2022-09-15T03:23:12.585Z,97270.65
2022-09-15T03:25:43.113Z,97265.85
2022-09-15T03:28:16.042Z,97263.80
2022-09-15T03:30:48.218Z,97254.63
2022-09-15T03:33:23.465Z,97244.90
2022-09-15T03:35:58.882Z,97247.81
2022-09-15T03:38:33.680Z,97252.10
2022-09-15T03:41:33.509Z,97251.45
2022-09-15T03:44:06.692Z,97252.48
2022-09-15T03:46:36.811Z,97245.73
2022-09-15T03:49:04.557Z,97236.23
2022-09-15T03:51:44.336Z,97233.95
2022-09-15T03:54:17.701Z,97250.42
2022-09-15T03:56:49.137Z,97249.69
2022-09-15T03:59:30.563Z,97231.52
2022-09-15T04:02:23.699Z,97229.04
2022-09-15T04:05:43.712Z,97223.90
2022-09-15T04:08:15.033Z,97235.91
2022-09-15T04:10:55.196Z,97234.45
2022-09-15T04:13:28.863Z,97232.03
2022-09-15T04:16:28.455Z,97217.22
2022-09-15T04:19:10.196Z,97207.23
2022-09-15T04:21:45.879Z,97206.46
2022-09-15T04:24:18.823Z,97218.56
2022-09-15T04:26:51.174Z,97215.17
2022-09-15T04:29:24.823Z,97206.86
2022-09-15T04:32:06.006Z,97201.25
2022-09-15T04:34:41.381Z,97194.88
2022-09-15T04:37:17.306Z,97185.91
2022-09-15T04:39:45.287Z,97175.30
2022-09-15T04:42:26.974Z,97167.48
2022-09-15T04:44:57.305Z,97163.05
2022-09-15T04:47:33.234Z,97175.67
2022-09-15T04:50:14.746Z,97196.23
2022-09-15T04:52:45.470Z,97191.48
2022-09-15T04:55:41.827Z,97192.43
2022-09-15T04:58:13.047Z,97193.53
2022-09-15T05:00:45.050Z,97190.17
2022-09-15T05:03:18.942Z,97183.77
2022-09-15T05:05:47.689Z,97186.80
2022-09-15T05:08:17.877Z,97187.45
2022-09-15T05:10:48.305Z,97189.98
2022-09-15T05:13:22.238Z,97185.71
2022-09-15T05:15:53.120Z,97183.31
2022-09-15T05:18:41.093Z,97184.77
2022-09-15T05:21:11.673Z,97183.46
2022-09-15T05:23:40.439Z,97178.96
2022-09-15T05:26:12.023Z,97179.45
2022-09-15T05:28:41.240Z,97179.11
2022-09-15T05:31:19.800Z,97174.08
2022-09-15T05:33:50.731Z,97170.89
2022-09-15T05:36:25.195Z,97168.08
2022-09-15T05:38:53.504Z,97166.70
2022-09-15T05:41:30.457Z,97161.67
2022-09-15T05:43:58.543Z,97159.56
2022-09-15T05:46:32.274Z,97160.15
2022-09-15T05:48:59.832Z,97162.20
2022-09-15T05:51:30.400Z,97153.23
2022-09-15T05:54:00.758Z,97148.77
2022-09-15T05:56:28.383Z,97138.63
2022-09-15T05:58:56.332Z,97130.54
2022-09-15T06:01:37.112Z,97134.30
2022-09-15T06:04:08.577Z,97143.73
2022-09-15T06:06:39.565Z,97145.13
2022-09-15T06:09:06.630Z,97137.78
2022-09-15T06:11:36.286Z,97134.79
2022-09-15T06:14:03.909Z,97132.87
2022-09-15T06:17:21.169Z,97141.46
2022-09-15T06:20:17.444Z,97148.20
2022-09-15T06:23:31.286Z,97148.66
2022-09-15T06:26:40.587Z,97140.32
2022-09-15T06:29:23.548Z,97142.09
2022-09-15T06:32:02.865Z,97147.08
2022-09-15T06:34:36.505Z,97144.63
2022-09-15T06:37:10.042Z,97140.08
2022-09-15T06:39:43.169Z,97146.09
2022-09-15T06:42:23.921Z,97150.74
2022-09-15T06:45:06.252Z,97148.92
2022-09-15T06:47:44.504Z,97148.06
2022-09-15T06:50:24.467Z,97149.89
2022-09-15T06:52:54.374Z,97150.03
2022-09-15T06:55:24.798Z,97149.47
2022-09-15T06:58:06.267Z,97151.65
2022-09-15T07:00:39.313Z,97153.88
2022-09-15T07:03:10.207Z,97160.96
2022-09-15T07:05:44.819Z,97165.11
2022-09-15T07:08:15.710Z,97165.97
2022-09-15T07:10:48.929Z,97165.48
2022-09-15T07:13:16.696Z,97167.50
2022-09-15T07:15:54.831Z,97170.18
2022-09-15T07:18:33.812Z,97165.85
2022-09-15T07:21:09.345Z,97169.91
2022-09-15T07:23:39.235Z,97174.54
2022-09-15T07:26:14.021Z,97172.73
2022-09-15T07:28:50.117Z,97177.90
2022-09-15T07:31:21.862Z,97176.13
2022-09-15T07:34:12.612Z,97174.56
2022-09-15T07:36:41.122Z,97171.13
2022-09-15T07:39:16.485Z,97171.64
2022-09-15T07:41:47.366Z,97170.80
2022-09-15T07:44:14.733Z,97169.63
2022-09-15T07:46:54.070Z,97169.84
2022-09-15T07:49:24.593Z,97179.15
2022-09-15T07:51:56.803Z,97180.31
2022-09-15T07:54:43.250Z,97175.46
2022-09-15T07:57:25.690Z,97171.83
2022-09-15T07:59:58.033Z,97169.81
2022-09-15T08:02:25.416Z,97170.40
2022-09-15T08:05:00.246Z,97172.86
2022-09-15T08:07:40.142Z,97174.10
2022-09-15T08:10:10.219Z,97173.15
2022-09-15T08:12:45.034Z,97166.48
2022-09-15T08:15:25.080Z,97166.23
2022-09-15T08:18:06.682Z,97172.71
2022-09-15T08:21:01.778Z,97179.39
2022-09-15T08:23:35.060Z,97186.84
2022-09-15T08:26:02.357Z,97186.95
2022-09-15T08:28:35.396Z,97189.45
2022-09-15T08:31:06.893Z,97186.02
2022-09-15T08:33:45.513Z,97181.53
2022-09-15T08:36:21.211Z,97175.52
2022-09-15T08:38:54.142Z,97183.27
2022-09-15T08:41:25.733Z,97184.59
2022-09-15T08:44:22.663Z,97186.05
2022-09-15T08:47:21.477Z,97180.86
2022-09-15T08:50:31.949Z,97185.08
2022-09-15T08:53:13.269Z,97185.77
2022-09-15T08:55:58.414Z,97187.87
2022-09-15T08:58:35.120Z,97189.77
2022-09-15T09:01:18.654Z,97192.02
2022-09-15T09:04:42.954Z,97194.52
2022-09-15T09:07:53.318Z,97188.85
2022-09-15T09:11:00.761Z,97187.16
2022-09-15T09:14:20.203Z,97194.02
2022-09-15T09:17:43.904Z,97193.33
2022-09-15T09:20:27.750Z,97189.65
2022-09-15T09:22:56.045Z,97187.48
2022-09-15T09:25:31.328Z,97182.50
2022-09-15T09:28:03.523Z,97174.05
2022-09-15T09:30:43.497Z,97167.58
2022-09-15T09:33:29.962Z,97171.58
2022-09-15T09:36:18.775Z,97175.77
2022-09-15T09:38:53.622Z,97175.11
2022-09-15T09:41:26.891Z,97178.02
2022-09-15T09:44:20.491Z,97175.98
2022-09-15T09:47:21.595Z,97175.69
2022-09-15T09:49:53.101Z,97174.22
2022-09-15T09:52:36.492Z,97175.86
2022-09-15T09:55:41.695Z,97176.52
2022-09-15T09:58:42.485Z,97176.95
2022-09-15T10:01:20.071Z,97170.97
2022-09-15T10:04:19.295Z,97170.09
2022-09-15T10:06:50.099Z,97165.91
2022-09-15T10:10:18.674Z,97164.97
2022-09-15T10:13:55.795Z,97162.48
2022-09-15T10:16:27.946Z,97159.68
2022-09-15T10:18:59.454Z,97163.58
2022-09-15T10:21:34.176Z,97160.44
2022-09-15T10:24:34.313Z,97160.14
2022-09-15T10:27:24.389Z,97161.58
2022-09-15T10:29:55.797Z,97158.98
2022-09-15T10:32:28.471Z,97157.54
2022-09-15T10:35:10.427Z,97157.27
2022-09-15T10:37:44.642Z,97156.23
2022-09-15T10:40:38.612Z,97158.54
2022-09-15T10:43:19.395Z,97153.87
2022-09-15T10:45:51.478Z,97149.05
2022-09-15T10:48:52.177Z,97148.70
2022-09-15T10:51:33.762Z,97144.83
2022-09-15T10:54:38.705Z,97136.35
2022-09-15T10:57:34.132Z,97139.36
2022-09-15T11:00:12.978Z,97135.92
2022-09-15T11:03:05.326Z,97128.29
2022-09-15T11:05:45.122Z,97129.16
2022-09-15T11:08:22.796Z,97125.26
2022-09-15T11:11:31.828Z,97120.54
2022-09-15T11:14:04.799Z,97117.65
2022-09-15T11:16:52.998Z,97119.50
2022-09-15T11:19:43.684Z,97129.52
2022-09-15T11:22:17.255Z,97138.73
2022-09-15T11:25:02.921Z,97135.40
2022-09-15T11:27:51.338Z,97135.30
2022-09-15T11:30:32.836Z,97129.86
2022-09-15T11:33:25.453Z,97128.48
2022-09-15T11:36:30.827Z,97117.89
2022-09-15T11:39:18.707Z,97115.15
2022-09-15T11:41:56.575Z,97113.35
2022-09-15T11:44:42.652Z,97110.11
2022-09-15T11:47:51.061Z,97117.54
2022-09-15T11:50:24.947Z,97119.83
2022-09-15T11:53:26.624Z,97114.16
2022-09-15T11:56:16.447Z,97113.79
2022-09-15T11:59:22.654Z,97109.15
2022-09-15T12:01:56.825Z,97104.58
2022-09-15T12:04:31.003Z,97105.91
2022-09-15T12:07:14.751Z,97101.36
2022-09-15T12:09:43.574Z,97096.23
2022-09-15T12:12:18.492Z,97098.31
2022-09-15T12:14:55.494Z,97100.17
2022-09-15T12:17:45.371Z,97097.89
2022-09-15T12:20:53.527Z,97108.11
2022-09-15T12:24:03.278Z,97110.07
2022-09-15T12:26:31.040Z,97115.58
2022-09-15T12:29:25.459Z,97118.54
2022-09-15T12:32:30.201Z,97114.25
2022-09-15T12:35:16.080Z,97115.26
2022-09-15T12:37:56.541Z,97118.77
2022-09-15T12:40:57.059Z,97120.80
2022-09-15T12:43:31.830Z,97126.05
2022-09-15T12:46:12.797Z,97127.35
2022-09-15T12:48:46.700Z,97127.46
2022-09-15T12:51:25.262Z,97127.86
2022-09-15T12:54:04.602Z,97128.42
2022-09-15T12:56:35.584Z,97133.71
2022-09-15T12:59:13.975Z,97131.40
2022-09-15T13:01:47.846Z,97130.55
2022-09-15T13:05:03.497Z,97139.17
2022-09-15T13:07:39.398Z,97138.71
2022-09-15T13:10:09.365Z,97135.13
2022-09-15T13:12:43.892Z,97134.64
2022-09-15T13:15:16.127Z,97136.32
2022-09-15T13:17:45.535Z,97137.58
2022-09-15T13:20:23.193Z,97140.90
2022-09-15T13:22:54.855Z,97132.31
2022-09-15T13:25:29.333Z,97134.12
2022-09-15T13:31:45.041Z,97142.37
2022-09-15T13:35:04.199Z,97143.68
2022-09-15T13:38:16.776Z,97143.79
2022-09-15T13:41:24.411Z,97148.74
2022-09-15T13:44:20.689Z,97146.29
2022-09-15T13:47:19.132Z,97137.14
2022-09-15T13:50:00.576Z,97141.84
2022-09-15T13:53:14.862Z,97152.90
2022-09-15T13:55:45.609Z,97174.89
2022-09-15T14:01:49.915Z,97195.48
2022-09-15T14:04:32.436Z,97204.39
2022-09-15T14:07:33.778Z,97203.40
2022-09-15T14:10:15.066Z,97204.18
2022-09-15T14:13:00.231Z,97199.52
2022-09-15T14:15:36.968Z,97193.29
2022-09-15T14:18:45.279Z,97192.97
2022-09-15T14:21:44.455Z,97192.52
2022-09-15T14:24:20.929Z,97195.02
2022-09-15T14:26:54.524Z,97190.44
2022-09-15T14:29:35.196Z,97188.26
2022-09-15T14:32:22.945Z,97192.58
2022-09-15T14:35:19.854Z,97193.61
2022-09-15T14:38:00.498Z,97203.96
2022-09-15T14:40:52.519Z,97206.64
2022-09-15T14:43:41.858Z,97209.98
2022-09-15T14:46:13.508Z,97218.63
2022-09-15T14:48:44.118Z,97224.18
2022-09-15T14:51:33.827Z,97223.35
2022-09-15T14:54:04.825Z,97227.45
2022-09-15T14:56:45.639Z,97227.44
2022-09-15T14:59:27.214Z,97226.33
2022-09-15T15:02:06.313Z,97229.80
2022-09-15T15:04:40.948Z,97228.04
2022-09-15T15:07:50.533Z,97229.48
2022-09-15T15:10:26.836Z,97231.66
2022-09-15T15:12:56.818Z,97235.50
2022-09-15T15:15:26.813Z,97237.94
2022-09-15T15:18:38.229Z,97240.77
2022-09-15T15:21:48.669Z,97241.61
2022-09-15T15:24:19.288Z,97245.84
2022-09-15T15:26:49.108Z,97239.73
2022-09-15T15:29:41.232Z,97235.91
2022-09-15T15:32:21.964Z,97232.28
2022-09-15T15:35:01.147Z,97237.58
2022-09-15T15:37:33.358Z,97243.63
2022-09-15T15:40:15.056Z,97238.23
2022-09-15T15:43:00.072Z,97232.36
2022-09-15T15:45:32.042Z,97232.11
2022-09-15T15:48:11.906Z,97226.30
2022-09-15T15:50:44.657Z,97221.27
2022-09-15T15:53:25.085Z,97218.26
2022-09-15T15:55:58.007Z,97221.04
2022-09-15T15:58:38.834Z,97215.91
2022-09-15T16:01:15.948Z,97214.87
2022-09-15T16:03:43.317Z,97209.20
2022-09-15T16:06:11.117Z,97205.89
2022-09-15T16:08:58.202Z,97206.82
2022-09-15T16:11:29.174Z,97200.14
2022-09-15T16:14:00.200Z,97199.61
2022-09-15T16:16:31.003Z,97195.95
2022-09-15T16:19:08.599Z,97202.80
2022-09-15T16:21:46.844Z,97206.08
2022-09-15T16:24:17.055Z,97207.21
2022-09-15T16:26:44.530Z,97204.27
2022-09-15T16:29:17.479Z,97202.58
2022-09-15T16:31:45.106Z,97208.83
2022-09-15T16:34:13.715Z,97217.02
2022-09-15T16:36:41.122Z,97221.98
2022-09-15T16:39:20.779Z,97228.08
2022-09-15T16:41:48.138Z,97225.13
2022-09-15T16:44:26.092Z,97226.77
2022-09-15T16:46:56.533Z,97227.02
2022-09-15T16:49:27.357Z,97233.77
2022-09-15T16:51:54.609Z,97237.47
2022-09-15T16:54:22.780Z,97242.19
2022-09-15T16:56:50.113Z,97248.49
2022-09-15T16:59:17.953Z,97252.77
2022-09-15T17:01:45.608Z,97248.19
2022-09-15T17:04:19.260Z,97250.55
2022-09-15T17:06:47.551Z,97253.21
2022-09-15T17:09:14.644Z,97247.93
2022-09-15T17:11:43.157Z,97238.80
2022-09-15T17:14:14.926Z,97236.54
2022-09-15T17:16:42.673Z,97242.08
2022-09-15T17:19:19.138Z,97240.86
2022-09-15T17:21:55.899Z,97250.67
2022-09-15T17:24:29.795Z,97247.85
2022-09-15T17:26:57.184Z,97243.59
2022-09-15T17:29:24.841Z,97240.73
2022-09-15T17:31:52.406Z,97246.71
2022-09-15T17:34:19.859Z,97246.70
2022-09-15T17:36:50.215Z,97242.05
2022-09-15T17:39:21.656Z,97246.67
2022-09-15T17:41:49.175Z,97242.35
2022-09-15T17:44:17.062Z,97249.69
2022-09-15T17:46:45.303Z,97243.83
2022-09-15T17:49:12.611Z,97243.59
2022-09-15T17:51:40.023Z,97246.05
2022-09-15T17:54:09.953Z,97239.70
2022-09-15T17:56:40.896Z,97235.97
2022-09-15T17:59:13.065Z,97235.10
2022-09-15T18:02:01.655Z,97238.55
2022-09-15T18:04:29.706Z,97238.84
2022-09-15T18:06:57.324Z,97250.02
2022-09-15T18:09:27.044Z,97250.70
2022-09-15T18:11:55.334Z,97252.98
2022-09-15T18:14:22.995Z,97242.60
2022-09-15T18:16:53.213Z,97243.45
2022-09-15T18:19:23.155Z,97241.99
2022-09-15T18:21:53.220Z,97230.70
2022-09-15T18:24:28.566Z,97218.51
2022-09-15T18:26:56.155Z,97212.71
2022-09-15T18:29:26.836Z,97215.05
2022-09-15T18:32:03.742Z,97221.67
2022-09-15T18:34:33.056Z,97235.64
2022-09-15T18:37:00.670Z,97223.45
2022-09-15T18:39:27.974Z,97215.66
2022-09-15T18:41:55.501Z,97216.10
2022-09-15T18:44:23.321Z,97215.45
2022-09-15T18:46:50.732Z,97223.99
2022-09-15T18:49:20.049Z,97218.27
2022-09-15T18:51:51.655Z,97214.20
2022-09-15T18:54:22.424Z,97208.31
2022-09-15T18:56:53.013Z,97206.95
2022-09-15T18:59:20.738Z,97202.40
2022-09-15T19:01:48.325Z,97198.52
2022-09-15T19:04:18.136Z,97192.63
2022-09-15T19:06:45.900Z,97180.40
2022-09-15T19:09:13.231Z,97168.60
2022-09-15T19:11:43.255Z,97168.11
2022-09-15T19:14:10.383Z,97171.81
2022-09-15T19:16:56.610Z,97175.48
2022-09-15T19:19:25.295Z,97179.73
2022-09-15T19:21:55.175Z,97200.39
2022-09-15T19:24:22.722Z,97198.83
2022-09-15T19:26:51.007Z,97192.25
2022-09-15T19:29:19.903Z,97196.27
2022-09-15T19:31:47.412Z,97189.77
2022-09-15T19:34:17.168Z,97171.84
2022-09-15T19:36:44.834Z,97181.06
2022-09-15T19:39:18.542Z,97181.83
2022-09-15T19:41:45.935Z,97179.38
2022-09-15T19:44:16.039Z,97182.04
2022-09-15T19:46:43.709Z,97183.11
2022-09-15T19:49:11.937Z,97192.48
2022-09-15T19:51:39.232Z,97197.38
2022-09-15T19:54:06.416Z,97192.92
2022-09-15T19:56:34.460Z,97166.16
2022-09-15T19:59:02.929Z,97157.95
2022-09-15T20:01:30.499Z,97160.95
2022-09-15T20:03:57.715Z,97156.89
2022-09-15T20:06:37.270Z,97140.26
2022-09-15T20:09:14.979Z,97139.89
2022-09-15T20:11:42.104Z,97135.92
2022-09-15T20:14:10.052Z,97136.71
2022-09-15T20:16:44.367Z,97139.81
2022-09-15T20:19:15.041Z,97133.02
2022-09-15T20:21:51.186Z,97146.08
2022-09-15T20:24:30.452Z,97148.58
2022-09-15T20:27:03.898Z,97137.80
2022-09-15T20:29:40.577Z,97142.07
2022-09-15T20:32:16.214Z,97145.38
2022-09-15T20:34:54.258Z,97147.20
2022-09-15T20:37:24.926Z,97147.73
2022-09-15T20:39:52.155Z,97154.61
2022-09-15T20:42:34.654Z,97145.34
2022-09-15T20:45:06.838Z,97141.13
2022-09-15T20:47:47.295Z,97142.97
2022-09-15T20:50:17.237Z,97149.61
2022-09-15T20:54:47.991Z,97177.01
2022-09-15T20:57:14.936Z,97152.14
2022-09-15T20:59:42.033Z,97145.78
2022-09-15T21:02:29.288Z,97162.45
2022-09-15T21:04:57.286Z,97165.85
2022-09-15T21:07:30.890Z,97189.95
2022-09-15T21:10:11.770Z,97210.08
2022-09-15T21:12:39.872Z,97212.10
2022-09-15T21:15:23.627Z,97205.70
2022-09-15T21:18:30.581Z,97183.64
2022-09-15T21:21:42.243Z,97190.50
2022-09-15T21:24:27.452Z,97187.35
2022-09-15T21:27:45.817Z,97177.94
2022-09-15T21:30:23.490Z,97181.17
2022-09-15T21:33:20.209Z,97174.38
2022-09-15T21:35:48.610Z,97180.21
2022-09-15T21:38:24.385Z,97179.85
2022-09-15T21:40:57.734Z,97168.52
2022-09-15T21:43:37.980Z,97162.57
2022-09-15T21:46:21.549Z,97152.06
2022-09-15T21:48:51.147Z,97142.58
2022-09-15T21:51:24.560Z,97145.00
2022-09-15T21:53:56.085Z,97147.73
2022-09-15T21:56:26.804Z,97144.10
2022-09-15T21:58:56.548Z,97143.20
2022-09-15T22:01:42.040Z,97146.77
2022-09-15T22:04:33.888Z,97144.29
2022-09-15T22:07:06.850Z,97141.39
2022-09-15T22:09:38.912Z,97133.10
2022-09-15T22:12:16.552Z,97136.89
2022-09-15T22:14:44.258Z,97141.51
2022-09-15T22:17:21.219Z,97147.90
2022-09-15T22:19:51.536Z,97152.73
2022-09-15T22:22:21.279Z,97159.89
2022-09-15T22:24:50.783Z,97163.89
2022-09-15T22:27:36.465Z,97160.65
2022-09-15T22:30:27.263Z,97156.62
2022-09-15T22:32:59.061Z,97162.10
2022-09-15T22:35:29.178Z,97175.20
2022-09-15T22:38:16.392Z,97187.55
2022-09-15T22:40:53.856Z,97200.06
2022-09-15T22:43:21.123Z,97194.77
2022-09-15T22:45:53.144Z,97197.97
2022-09-15T22:48:20.295Z,97206.76
2022-09-15T22:51:00.747Z,97208.85
2022-09-15T22:53:35.571Z,97211.88
2022-09-15T22:56:04.881Z,97208.93
2022-09-15T22:58:35.708Z,97203.05
2022-09-15T23:01:20.151Z,97199.97
2022-09-15T23:03:57.277Z,97200.17
2022-09-15T23:06:28.136Z,97203.45
2022-09-15T23:09:07.440Z,97199.27
2022-09-15T23:11:34.915Z,97202.04
2022-09-15T23:14:14.433Z,97204.61
2022-09-15T23:16:43.606Z,97209.54
2022-09-15T23:19:16.153Z,97211.68
2022-09-15T23:21:53.364Z,97221.14
2022-09-15T23:24:23.553Z,97223.29
2022-09-15T23:26:53.571Z,97223.49
2022-09-15T23:29:25.528Z,97228.25
2022-09-15T23:31:55.172Z,97234.52
2022-09-15T23:34:35.969Z,97233.20
2022-09-15T23:37:03.000Z,97234.33
2022-09-15T23:39:34.652Z,97238.81
2022-09-15T23:42:14.546Z,97233.21
2022-09-15T23:44:51.259Z,97238.82
2022-09-15T23:47:21.702Z,97244.06
2022-09-15T23:50:00.839Z,97245.13
2022-09-15T23:52:27.631Z,97242.98
2022-09-15T23:55:06.088Z,97249.14
2022-09-15T23:58:04.040Z,97249.42
